Check out our new PWSWeather beta!
PWSweather.com
Personal Weather Stations
Station Observations
ROLLINGSHOEBOX
Quartzsite, AZ 85346

Quartzsite, AZ 85346

Lat: 33.61410061999845, Lon: -114.19786518999796

Elevation: 1050

Station Type: Acurite 01536

Latest ConditionsUpdated 8:15:00 PM MST Thursday, Feb 27, 2020
Currently Today's Max Today's Min Today's Average
Temperature 57.5°F14.2°C 78.0°F25.6°C 41.4°F5.2°C 67.8°F19.9°C
Dew Point 39.6°F4.2°C 40.9°F4.9°C 28.0°F-2.2°C 33.0°F0.6°C
Winds Calm Calm 6.9 mph -11.1 kmh - - 2.4 mph 3.9 kmh
Wind Gusts -- 11.9 mph19.2 kmh - -
Humidity 51% 68% 18% 30%
Pressure 30.23 in1023.7 mb 30.34 in1027.4 mb 30.16 in1021.3 mb -
Hour Temp Dew Point Humidity Winds Wind Gusts Pressure Precip Precip Rate Daily Precip Total
08:15 PM 57.5°F14.2°C 39.6°F4.2°C 51% Calm Calm -- 30.23 in1023.7 mb 0.00 in0.0 mm 0.00 in0.0 mm 0.00 in0.0 mm
08:10 PM 57.8°F14.3°C 40.0°F4.4°C 52% Calm Calm -- 30.23 in1023.7 mb 0.00 in0.0 mm 0.00 in0.0 mm 0.00 in0.0 mm
08:05 PM 58.1°F14.5°C 40.3°F4.6°C 52% Calm Calm -- 30.22 in1023.4 mb 0.00 in0.0 mm 0.00 in0.0 mm 0.00 in0.0 mm
08:00 PM 58.4°F14.7°C 40.9°F4.9°C 52% Calm Calm -- 30.22 in1023.4 mb 0.00 in0.0 mm 0.00 in0.0 mm 0.00 in0.0 mm
07:55 PM 58.7°F14.8°C 40.7°F4.8°C 51% Calm Calm -- 30.22 in1023.4 mb 0.00 in0.0 mm 0.00 in0.0 mm 0.00 in0.0 mm
07:50 PM 58.8°F14.9°C 40.6°F4.8°C 51% Calm Calm -- 30.22 in1023.4 mb 0.00 in0.0 mm 0.00 in0.0 mm 0.00 in0.0 mm
07:45 PM 59.0°F15.0°C 39.7°F4.3°C 49% Calm Calm -- 30.22 in1023.4 mb 0.00 in0.0 mm 0.00 in0.0 mm 0.00 in0.0 mm
07:40 PM 59.0°F15.0°C 39.6°F4.2°C 48% Calm Calm -- 30.22 in1023.4 mb 0.00 in0.0 mm 0.00 in0.0 mm 0.00 in0.0 mm
07:35 PM 59.4°F15.2°C 38.9°F3.8°C 47% Calm Calm -- 30.22 in1023.4 mb 0.00 in0.0 mm 0.00 in0.0 mm 0.00 in0.0 mm
07:30 PM 59.4°F15.2°C 37.8°F3.2°C 45% Calm Calm -- 30.22 in1023.4 mb 0.00 in0.0 mm 0.00 in0.0 mm 0.00 in0.0 mm
07:25 PM 59.7°F15.4°C 39.4°F4.1°C 47% Calm Calm -- 30.22 in1023.4 mb 0.00 in0.0 mm 0.00 in0.0 mm 0.00 in0.0 mm
07:20 PM 60.2°F15.7°C 39.8°F4.3°C 47% Calm Calm -- 30.22 in1023.4 mb 0.00 in0.0 mm 0.00 in0.0 mm 0.00 in0.0 mm
07:15 PM 61.0°F16.1°C 36.7°F2.6°C 40% Calm Calm -- 30.22 in1023.4 mb 0.00 in0.0 mm 0.00 in0.0 mm 0.00 in0.0 mm
07:10 PM 61.3°F16.3°C 36.7°F2.6°C 40% Calm Calm -- 30.21 in1023.0 mb 0.00 in0.0 mm 0.00 in0.0 mm 0.00 in0.0 mm
07:05 PM 61.9°F16.6°C 37.2°F2.9°C 40% Calm Calm -- 30.21 in1023.0 mb 0.00 in0.0 mm 0.00 in0.0 mm 0.00 in0.0 mm
07:00 PM 62.3°F16.8°C 38.6°F3.7°C 42% Calm Calm -- 30.21 in1023.0 mb 0.00 in0.0 mm 0.00 in0.0 mm 0.00 in0.0 mm
06:55 PM 62.9°F17.2°C 36.9°F2.7°C 38% Calm Calm -- 30.20 in1022.7 mb 0.00 in0.0 mm 0.00 in0.0 mm 0.00 in0.0 mm
06:50 PM 63.3°F17.4°C 36.6°F2.6°C 37% Calm Calm -- 30.20 in1022.7 mb 0.00 in0.0 mm 0.00 in0.0 mm 0.00 in0.0 mm
06:45 PM 64.0°F17.8°C 37.0°F2.8°C 37% Calm Calm -- 30.20 in1022.7 mb 0.00 in0.0 mm 0.00 in0.0 mm 0.00 in0.0 mm
06:40 PM 64.9°F18.3°C 36.0°F2.2°C 34% Calm Calm -- 30.19 in1022.4 mb 0.00 in0.0 mm 0.00 in0.0 mm 0.00 in0.0 mm
06:35 PM 65.4°F18.6°C 35.6°F2.0°C 33% Calm Calm -- 30.19 in1022.4 mb 0.00 in0.0 mm 0.00 in0.0 mm 0.00 in0.0 mm
06:30 PM 65.9°F18.8°C 37.7°F3.2°C 35% Calm Calm -- 30.19 in1022.4 mb 0.00 in0.0 mm 0.00 in0.0 mm 0.00 in0.0 mm
06:25 PM 66.7°F19.3°C 38.0°F3.3°C 35% Calm Calm -- 30.18 in1022.0 mb 0.00 in0.0 mm 0.00 in0.0 mm 0.00 in0.0 mm
06:20 PM 67.7°F19.8°C 35.9°F2.2°C 31% Calm Calm -- 30.18 in1022.0 mb 0.00 in0.0 mm 0.00 in0.0 mm 0.00 in0.0 mm
06:15 PM 68.8°F20.4°C 31.9°F-0.1°C 25% Calm Calm -- 30.17 in1021.7 mb 0.00 in0.0 mm 0.00 in0.0 mm 0.00 in0.0 mm
06:10 PM 69.3°F20.7°C 32.6°F0.3°C 26% Calm Calm -- 30.17 in1021.7 mb 0.00 in0.0 mm 0.00 in0.0 mm 0.00 in0.0 mm
06:05 PM 69.8°F21.0°C 33.2°F0.7°C 26% Calm Calm -- 30.18 in1022.0 mb 0.00 in0.0 mm 0.00 in0.0 mm 0.00 in0.0 mm
06:00 PM 70.6°F21.4°C 31.5°F-0.3°C 24% Calm Calm -- 30.17 in1021.7 mb 0.00 in0.0 mm 0.00 in0.0 mm 0.00 in0.0 mm
05:55 PM 71.0°F21.7°C 31.3°F-0.4°C 23% Calm Calm -- 30.17 in1021.7 mb 0.00 in0.0 mm 0.00 in0.0 mm 0.00 in0.0 mm
05:50 PM 71.2°F21.8°C 31.5°F-0.3°C 23% 0.1 mph NNW0.2 kmh NNW 1.1 mph1.8 kmh 30.17 in1021.7 mb 0.00 in0.0 mm 0.00 in0.0 mm 0.00 in0.0 mm
05:45 PM 71.4°F21.9°C 31.7°F-0.2°C 23% Calm Calm -- 30.17 in1021.7 mb 0.00 in0.0 mm 0.00 in0.0 mm 0.00 in0.0 mm
05:40 PM 72.0°F22.2°C 32.2°F0.1°C 23% 0.2 mph NNW0.3 kmh NNW 1.7 mph2.7 kmh 30.16 in1021.3 mb 0.00 in0.0 mm 0.00 in0.0 mm 0.00 in0.0 mm
05:35 PM 72.3°F22.4°C 31.4°F-0.3°C 22% 0.6 mph NNW1.0 kmh NNW 2.2 mph3.5 kmh 30.16 in1021.3 mb 0.00 in0.0 mm 0.00 in0.0 mm 0.00 in0.0 mm
05:30 PM 72.7°F22.6°C 31.7°F-0.2°C 22% Calm Calm -- 30.17 in1021.7 mb 0.00 in0.0 mm 0.00 in0.0 mm 0.00 in0.0 mm
05:25 PM 72.9°F22.7°C 31.7°F-0.2°C 22% Calm Calm -- 30.17 in1021.7 mb 0.00 in0.0 mm 0.00 in0.0 mm 0.00 in0.0 mm
05:20 PM 73.2°F22.9°C 31.1°F-0.5°C 21% 0.1 mph N0.2 kmh N 1.7 mph2.7 kmh 30.17 in1021.7 mb 0.00 in0.0 mm 0.00 in0.0 mm 0.00 in0.0 mm
05:15 PM 73.3°F22.9°C 30.9°F-0.6°C 21% 0.1 mph N0.2 kmh N 2.2 mph3.5 kmh 30.16 in1021.3 mb 0.00 in0.0 mm 0.00 in0.0 mm 0.00 in0.0 mm
05:10 PM 73.8°F23.2°C 30.9°F-0.6°C 21% 1.5 mph NNW2.4 kmh NNW 4.7 mph7.6 kmh 30.16 in1021.3 mb 0.00 in0.0 mm 0.00 in0.0 mm 0.00 in0.0 mm
05:05 PM 73.8°F23.2°C 30.3°F-0.9°C 20% 0.9 mph NNW1.4 kmh NNW 3.7 mph6.0 kmh 30.16 in1021.3 mb 0.00 in0.0 mm 0.00 in0.0 mm 0.00 in0.0 mm
05:00 PM 73.8°F23.2°C 29.3°F-1.5°C 19% 2.6 mph NNW4.2 kmh NNW 4.7 mph7.6 kmh 30.16 in1021.3 mb 0.00 in0.0 mm 0.00 in0.0 mm 0.00 in0.0 mm
04:55 PM 74.8°F23.8°C 30.2°F-1.0°C 19% 2.1 mph NNW3.4 kmh NNW 4.7 mph7.6 kmh 30.16 in1021.3 mb 0.00 in0.0 mm 0.00 in0.0 mm 0.00 in0.0 mm
04:50 PM 74.9°F23.8°C 30.2°F-1.0°C 19% 1.7 mph NNW2.7 kmh NNW 4.7 mph7.6 kmh 30.17 in1021.7 mb 0.00 in0.0 mm 0.00 in0.0 mm 0.00 in0.0 mm
04:45 PM 75.2°F24.0°C 30.1°F-1.1°C 19% 1.9 mph NW3.1 kmh NW 4.2 mph6.8 kmh 30.17 in1021.7 mb 0.00 in0.0 mm 0.00 in0.0 mm 0.00 in0.0 mm
04:40 PM 74.7°F23.7°C 29.7°F-1.3°C 19% 3.9 mph NNW6.3 kmh NNW 5.8 mph9.3 kmh 30.17 in1021.7 mb 0.00 in0.0 mm 0.00 in0.0 mm 0.00 in0.0 mm
04:35 PM 75.7°F24.3°C 30.2°F-1.0°C 19% 1.9 mph NNW3.1 kmh NNW 4.2 mph6.8 kmh 30.17 in1021.7 mb 0.00 in0.0 mm 0.00 in0.0 mm 0.00 in0.0 mm
04:30 PM 76.3°F24.6°C 30.5°F-0.8°C 19% 1.3 mph NNW2.1 kmh NNW 3.7 mph6.0 kmh 30.17 in1021.7 mb 0.00 in0.0 mm 0.00 in0.0 mm 0.00 in0.0 mm
04:25 PM 76.1°F24.5°C 30.8°F-0.7°C 19% 1.3 mph NNW2.1 kmh NNW 4.7 mph7.6 kmh 30.17 in1021.7 mb 0.00 in0.0 mm 0.00 in0.0 mm 0.00 in0.0 mm
04:20 PM 76.4°F24.7°C 29.7°F-1.3°C 18% 2.8 mph NNW4.5 kmh NNW 4.7 mph7.6 kmh 30.17 in1021.7 mb 0.00 in0.0 mm 0.00 in0.0 mm 0.00 in0.0 mm
04:15 PM 76.5°F24.7°C 29.8°F-1.2°C 18% 2.1 mph NNW3.4 kmh NNW 4.2 mph6.8 kmh 30.17 in1021.7 mb 0.00 in0.0 mm 0.00 in0.0 mm 0.00 in0.0 mm
04:10 PM 76.2°F24.6°C 29.6°F-1.3°C 18% 3.7 mph NNW6.0 kmh NNW 6.8 mph10.9 kmh 30.17 in1021.7 mb 0.00 in0.0 mm 0.00 in0.0 mm 0.00 in0.0 mm
04:05 PM 76.2°F24.6°C 29.7°F-1.3°C 18% 2.9 mph NNW4.7 kmh NNW 5.3 mph8.5 kmh 30.17 in1021.7 mb 0.00 in0.0 mm 0.00 in0.0 mm 0.00 in0.0 mm
04:00 PM 77.0°F25.0°C 30.3°F-0.9°C 18% 4.8 mph NNW7.7 kmh NNW 5.8 mph9.3 kmh 30.17 in1021.7 mb 0.00 in0.0 mm 0.00 in0.0 mm 0.00 in0.0 mm
03:55 PM 77.4°F25.2°C 30.6°F-0.8°C 18% 3.2 mph NNW5.1 kmh NNW 7.3 mph11.7 kmh 30.17 in1021.7 mb 0.00 in0.0 mm 0.00 in0.0 mm 0.00 in0.0 mm
03:50 PM 77.4°F25.2°C 31.1°F-0.5°C 18% 2.9 mph NNW4.7 kmh NNW 6.3 mph10.1 kmh 30.18 in1022.0 mb 0.00 in0.0 mm 0.00 in0.0 mm 0.00 in0.0 mm
03:45 PM 77.0°F25.0°C 31.6°F-0.2°C 19% 2.8 mph NNW4.5 kmh NNW 6.3 mph10.1 kmh 30.18 in1022.0 mb 0.00 in0.0 mm 0.00 in0.0 mm 0.00 in0.0 mm
03:40 PM 76.9°F24.9°C 31.0°F-0.6°C 19% 4.3 mph NNW6.9 kmh NNW 7.8 mph12.6 kmh 30.18 in1022.0 mb 0.00 in0.0 mm 0.00 in0.0 mm 0.00 in0.0 mm
03:35 PM 77.9°F25.5°C 31.0°F-0.6°C 18% 3.5 mph NNW5.6 kmh NNW 6.8 mph10.9 kmh 30.18 in1022.0 mb 0.00 in0.0 mm 0.00 in0.0 mm 0.00 in0.0 mm
03:30 PM 77.5°F25.3°C 31.6°F-0.2°C 19% 1.5 mph NNW2.4 kmh NNW 4.2 mph6.8 kmh 30.17 in1021.7 mb 0.00 in0.0 mm 0.00 in0.0 mm 0.00 in0.0 mm
03:25 PM 77.7°F25.4°C 31.1°F-0.5°C 18% 4.0 mph NNW6.4 kmh NNW 6.8 mph10.9 kmh 30.18 in1022.0 mb 0.00 in0.0 mm 0.00 in0.0 mm 0.00 in0.0 mm
03:20 PM 76.8°F24.9°C 31.7°F-0.2°C 19% 3.6 mph NNW5.8 kmh NNW 6.8 mph10.9 kmh 30.18 in1022.0 mb 0.00 in0.0 mm 0.00 in0.0 mm 0.00 in0.0 mm
03:15 PM 75.5°F24.2°C 30.5°F-0.8°C 19% 4.6 mph NNW7.4 kmh NNW 7.8 mph12.6 kmh 30.18 in1022.0 mb 0.00 in0.0 mm 0.00 in0.0 mm 0.00 in0.0 mm
03:10 PM 76.4°F24.7°C 31.4°F-0.3°C 19% 3.9 mph NNW6.3 kmh NNW 6.3 mph10.1 kmh 30.18 in1022.0 mb 0.00 in0.0 mm 0.00 in0.0 mm 0.00 in0.0 mm
03:05 PM 76.0°F24.4°C 31.1°F-0.5°C 19% 5.7 mph NNW9.2 kmh NNW 7.3 mph11.7 kmh 30.18 in1022.0 mb 0.00 in0.0 mm 0.00 in0.0 mm 0.00 in0.0 mm
03:00 PM 76.5°F24.7°C 31.1°F-0.5°C 19% 5.7 mph NNW9.2 kmh NNW 8.9 mph14.3 kmh 30.18 in1022.0 mb 0.00 in0.0 mm 0.00 in0.0 mm 0.00 in0.0 mm
02:55 PM 77.6°F25.3°C 32.0°F0.0°C 19% 6.2 mph NNW10.0 kmh NNW 10.4 mph16.7 kmh 30.18 in1022.0 mb 0.00 in0.0 mm 0.00 in0.0 mm 0.00 in0.0 mm
02:50 PM 77.8°F25.4°C 32.6°F0.3°C 19% 5.2 mph NNW8.4 kmh NNW 8.3 mph13.4 kmh 30.18 in1022.0 mb 0.00 in0.0 mm 0.00 in0.0 mm 0.00 in0.0 mm
02:45 PM 77.0°F25.0°C 32.7°F0.4°C 20% 3.8 mph N6.1 kmh N 6.8 mph10.9 kmh 30.18 in1022.0 mb 0.00 in0.0 mm 0.00 in0.0 mm 0.00 in0.0 mm
02:40 PM 75.6°F24.2°C 31.7°F-0.2°C 20% 5.2 mph NNW8.4 kmh NNW 7.8 mph12.6 kmh 30.19 in1022.4 mb 0.00 in0.0 mm 0.00 in0.0 mm 0.00 in0.0 mm
02:35 PM 75.3°F24.1°C 31.5°F-0.3°C 20% 4.2 mph NNW6.8 kmh NNW 8.3 mph13.4 kmh 30.19 in1022.4 mb 0.00 in0.0 mm 0.00 in0.0 mm 0.00 in0.0 mm
02:30 PM 75.3°F24.1°C 30.8°F-0.7°C 20% 5.0 mph NNW8.0 kmh NNW 7.8 mph12.6 kmh 30.19 in1022.4 mb 0.00 in0.0 mm 0.00 in0.0 mm 0.00 in0.0 mm
02:25 PM 76.1°F24.5°C 30.9°F-0.6°C 19% 4.0 mph NNW6.4 kmh NNW 7.3 mph11.7 kmh 30.19 in1022.4 mb 0.00 in0.0 mm 0.00 in0.0 mm 0.00 in0.0 mm
02:20 PM 76.1°F24.5°C 31.7°F-0.2°C 20% 5.2 mph N8.4 kmh N 8.3 mph13.4 kmh 30.19 in1022.4 mb 0.00 in0.0 mm 0.00 in0.0 mm 0.00 in0.0 mm
02:15 PM 77.1°F25.1°C 32.7°F0.4°C 20% 5.3 mph NNW8.5 kmh NNW 7.3 mph11.7 kmh 30.19 in1022.4 mb 0.00 in0.0 mm 0.00 in0.0 mm 0.00 in0.0 mm
02:10 PM 77.3°F25.2°C 32.7°F0.4°C 20% 3.8 mph NNW6.1 kmh NNW 6.3 mph10.1 kmh 30.19 in1022.4 mb 0.00 in0.0 mm 0.00 in0.0 mm 0.00 in0.0 mm
02:05 PM 76.4°F24.7°C 32.3°F0.2°C 20% 5.0 mph NNW8.0 kmh NNW 9.9 mph15.9 kmh 30.20 in1022.7 mb 0.00 in0.0 mm 0.00 in0.0 mm 0.00 in0.0 mm
02:00 PM 75.4°F24.1°C 31.6°F-0.2°C 20% 5.7 mph N9.2 kmh N 8.9 mph14.3 kmh 30.20 in1022.7 mb 0.00 in0.0 mm 0.00 in0.0 mm 0.00 in0.0 mm
01:55 PM 76.0°F24.4°C 32.0°F0.0°C 20% 6.9 mph NNW11.1 kmh NNW 11.9 mph19.2 kmh 30.20 in1022.7 mb 0.00 in0.0 mm 0.00 in0.0 mm 0.00 in0.0 mm
01:50 PM 77.0°F25.0°C 32.0°F0.0°C 19% 6.7 mph NNW10.8 kmh NNW 10.9 mph17.5 kmh 30.20 in1022.7 mb 0.00 in0.0 mm 0.00 in0.0 mm 0.00 in0.0 mm
01:45 PM 78.0°F25.6°C 33.9°F1.1°C 20% 4.4 mph N7.1 kmh N 8.3 mph13.4 kmh 30.20 in1022.7 mb 0.00 in0.0 mm 0.00 in0.0 mm 0.00 in0.0 mm
01:40 PM 77.6°F25.3°C 33.7°F0.9°C 20% 5.0 mph NNW8.0 kmh NNW 7.8 mph12.6 kmh 30.21 in1023.0 mb 0.00 in0.0 mm 0.00 in0.0 mm 0.00 in0.0 mm
01:35 PM 77.0°F25.0°C 33.5°F0.8°C 21% 4.4 mph NNW7.1 kmh NNW 8.9 mph14.3 kmh 30.21 in1023.0 mb 0.00 in0.0 mm 0.00 in0.0 mm 0.00 in0.0 mm
01:30 PM 77.0°F25.0°C 34.4°F1.3°C 21% 3.2 mph NNW5.1 kmh NNW 7.3 mph11.7 kmh 30.22 in1023.4 mb 0.00 in0.0 mm 0.00 in0.0 mm 0.00 in0.0 mm
01:25 PM 76.2°F24.6°C 33.7°F0.9°C 21% 3.7 mph NNW6.0 kmh NNW 6.3 mph10.1 kmh 30.22 in1023.4 mb 0.00 in0.0 mm 0.00 in0.0 mm 0.00 in0.0 mm
01:20 PM 76.0°F24.4°C 34.2°F1.2°C 22% 4.7 mph NNW7.6 kmh NNW 7.3 mph11.7 kmh 30.23 in1023.7 mb 0.00 in0.0 mm 0.00 in0.0 mm 0.00 in0.0 mm
01:15 PM 74.9°F23.8°C 33.9°F1.1°C 22% 4.6 mph NNW7.4 kmh NNW 7.8 mph12.6 kmh 30.23 in1023.7 mb 0.00 in0.0 mm 0.00 in0.0 mm 0.00 in0.0 mm
01:10 PM 74.6°F23.7°C 33.4°F0.8°C 22% 5.3 mph NNW8.5 kmh NNW 7.3 mph11.7 kmh 30.23 in1023.7 mb 0.00 in0.0 mm 0.00 in0.0 mm 0.00 in0.0 mm
01:05 PM 74.5°F23.6°C 33.6°F0.9°C 22% 4.1 mph NNW6.6 kmh NNW 8.9 mph14.3 kmh 30.24 in1024.0 mb 0.00 in0.0 mm 0.00 in0.0 mm 0.00 in0.0 mm
01:00 PM 74.0°F23.3°C 33.3°F0.7°C 22% 4.6 mph NNW7.4 kmh NNW 6.3 mph10.1 kmh 30.24 in1024.0 mb 0.00 in0.0 mm 0.00 in0.0 mm 0.00 in0.0 mm
12:55 PM 74.4°F23.6°C 33.4°F0.8°C 22% 5.0 mph NNW8.0 kmh NNW 6.8 mph10.9 kmh 30.24 in1024.0 mb 0.00 in0.0 mm 0.00 in0.0 mm 0.00 in0.0 mm
12:50 PM 74.3°F23.5°C 33.3°F0.7°C 22% 3.5 mph N5.6 kmh N 8.3 mph13.4 kmh 30.24 in1024.0 mb 0.00 in0.0 mm 0.00 in0.0 mm 0.00 in0.0 mm
12:45 PM 74.3°F23.5°C 33.0°F0.6°C 22% 5.6 mph NNW9.0 kmh NNW 7.8 mph12.6 kmh 30.25 in1024.4 mb 0.00 in0.0 mm 0.00 in0.0 mm 0.00 in0.0 mm
12:40 PM 74.4°F23.6°C 33.2°F0.7°C 22% 4.8 mph NNW7.7 kmh NNW 8.9 mph14.3 kmh 30.25 in1024.4 mb 0.00 in0.0 mm 0.00 in0.0 mm 0.00 in0.0 mm
12:35 PM 74.3°F23.5°C 33.3°F0.7°C 22% 3.7 mph NNW6.0 kmh NNW 8.9 mph14.3 kmh 30.25 in1024.4 mb 0.00 in0.0 mm 0.00 in0.0 mm 0.00 in0.0 mm
12:30 PM 74.3°F23.5°C 34.2°F1.2°C 23% 2.6 mph NNW4.2 kmh NNW 6.8 mph10.9 kmh 30.25 in1024.4 mb 0.00 in0.0 mm 0.00 in0.0 mm 0.00 in0.0 mm
12:25 PM 73.6°F23.1°C 33.9°F1.1°C 23% 2.9 mph NNW4.7 kmh NNW 6.3 mph10.1 kmh 30.25 in1024.4 mb 0.00 in0.0 mm 0.00 in0.0 mm 0.00 in0.0 mm
12:20 PM 73.3°F22.9°C 33.4°F0.8°C 23% 3.8 mph NNW6.1 kmh NNW 5.8 mph9.3 kmh 30.26 in1024.7 mb 0.00 in0.0 mm 0.00 in0.0 mm 0.00 in0.0 mm
12:15 PM 73.0°F22.8°C 33.9°F1.1°C 24% 3.9 mph NNW6.3 kmh NNW 7.3 mph11.7 kmh 30.26 in1024.7 mb 0.00 in0.0 mm 0.00 in0.0 mm 0.00 in0.0 mm
12:10 PM 72.7°F22.6°C 33.1°F0.6°C 23% 3.5 mph NNW5.6 kmh NNW 6.8 mph10.9 kmh 30.26 in1024.7 mb 0.00 in0.0 mm 0.00 in0.0 mm 0.00 in0.0 mm
12:05 PM 72.8°F22.7°C 32.8°F0.4°C 23% 3.9 mph NNW6.3 kmh NNW 6.3 mph10.1 kmh 30.26 in1024.7 mb 0.00 in0.0 mm 0.00 in0.0 mm 0.00 in0.0 mm
12:00 PM 72.6°F22.6°C 33.4°F0.8°C 24% 4.4 mph NNW7.1 kmh NNW 7.8 mph12.6 kmh 30.26 in1024.7 mb 0.00 in0.0 mm 0.00 in0.0 mm 0.00 in0.0 mm
11:55 AM 73.0°F22.8°C 33.0°F0.6°C 23% 3.2 mph NNW5.1 kmh NNW 6.8 mph10.9 kmh 30.27 in1025.1 mb 0.00 in0.0 mm 0.00 in0.0 mm 0.00 in0.0 mm
11:50 AM 71.8°F22.1°C 32.9°F0.5°C 24% 3.5 mph NW5.6 kmh NW 6.8 mph10.9 kmh 30.27 in1025.1 mb 0.00 in0.0 mm 0.00 in0.0 mm 0.00 in0.0 mm
11:45 AM 71.5°F21.9°C 32.9°F0.5°C 24% 5.3 mph NW8.5 kmh NW 8.3 mph13.4 kmh 30.27 in1025.1 mb 0.00 in0.0 mm 0.00 in0.0 mm 0.00 in0.0 mm
11:40 AM 71.3°F21.8°C 33.9°F1.1°C 25% 3.6 mph NNW5.8 kmh NNW 6.8 mph10.9 kmh 30.27 in1025.1 mb 0.00 in0.0 mm 0.00 in0.0 mm 0.00 in0.0 mm
11:35 AM 70.2°F21.2°C 33.3°F0.7°C 26% 3.5 mph N5.6 kmh N 7.8 mph12.6 kmh 30.28 in1025.4 mb 0.00 in0.0 mm 0.00 in0.0 mm 0.00 in0.0 mm
11:30 AM 70.3°F21.3°C 33.7°F0.9°C 26% 4.0 mph NNW6.4 kmh NNW 9.4 mph15.1 kmh 30.28 in1025.4 mb 0.00 in0.0 mm 0.00 in0.0 mm 0.00 in0.0 mm
11:25 AM 69.5°F20.8°C 33.1°F0.6°C 26% 5.0 mph NNW8.0 kmh NNW 7.3 mph11.7 kmh 30.28 in1025.4 mb 0.00 in0.0 mm 0.00 in0.0 mm 0.00 in0.0 mm
11:20 AM 69.3°F20.7°C 32.9°F0.5°C 26% 3.7 mph NNW6.0 kmh NNW 6.3 mph10.1 kmh 30.29 in1025.7 mb 0.00 in0.0 mm 0.00 in0.0 mm 0.00 in0.0 mm
11:15 AM 69.1°F20.6°C 32.8°F0.4°C 26% 5.0 mph NW8.0 kmh NW 8.3 mph13.4 kmh 30.29 in1025.7 mb 0.00 in0.0 mm 0.00 in0.0 mm 0.00 in0.0 mm
11:10 AM 68.3°F20.2°C 33.1°F0.6°C 27% 5.4 mph NW8.7 kmh NW 7.3 mph11.7 kmh 30.29 in1025.7 mb 0.00 in0.0 mm 0.00 in0.0 mm 0.00 in0.0 mm
11:05 AM 68.3°F20.2°C 33.3°F0.7°C 27% 4.5 mph NW7.2 kmh NW 7.3 mph11.7 kmh 30.29 in1025.7 mb 0.00 in0.0 mm 0.00 in0.0 mm 0.00 in0.0 mm
11:00 AM 67.1°F19.5°C 33.0°F0.6°C 28% 4.4 mph N7.1 kmh N 6.8 mph10.9 kmh 30.29 in1025.7 mb 0.00 in0.0 mm 0.00 in0.0 mm 0.00 in0.0 mm
10:55 AM 67.3°F19.6°C 33.9°F1.1°C 29% 3.9 mph NNW6.3 kmh NNW 7.8 mph12.6 kmh 30.30 in1026.1 mb 0.00 in0.0 mm 0.00 in0.0 mm 0.00 in0.0 mm
10:50 AM 66.5°F19.2°C 33.0°F0.6°C 29% 4.9 mph NNW7.9 kmh NNW 8.3 mph13.4 kmh 30.30 in1026.1 mb 0.00 in0.0 mm 0.00 in0.0 mm 0.00 in0.0 mm
10:45 AM 66.2°F19.0°C 33.0°F0.6°C 29% 3.9 mph NNW6.3 kmh NNW 5.3 mph8.5 kmh 30.30 in1026.1 mb 0.00 in0.0 mm 0.00 in0.0 mm 0.00 in0.0 mm
10:40 AM 65.9°F18.8°C 32.7°F0.4°C 29% 4.0 mph N6.4 kmh N 6.8 mph10.9 kmh 30.31 in1026.4 mb 0.00 in0.0 mm 0.00 in0.0 mm 0.00 in0.0 mm
10:35 AM 66.0°F18.9°C 32.7°F0.4°C 29% 2.9 mph NNW4.7 kmh NNW 6.3 mph10.1 kmh 30.31 in1026.4 mb 0.00 in0.0 mm 0.00 in0.0 mm 0.00 in0.0 mm
10:30 AM 65.8°F18.8°C 32.7°F0.4°C 29% 2.9 mph NNW4.7 kmh NNW 5.8 mph9.3 kmh 30.31 in1026.4 mb 0.00 in0.0 mm 0.00 in0.0 mm 0.00 in0.0 mm
10:25 AM 65.3°F18.5°C 33.1°F0.6°C 30% 1.9 mph NNW3.1 kmh NNW 4.2 mph6.8 kmh 30.31 in1026.4 mb 0.00 in0.0 mm 0.00 in0.0 mm 0.00 in0.0 mm
10:20 AM 64.8°F18.2°C 32.5°F0.3°C 30% 2.6 mph NNW4.2 kmh NNW 5.8 mph9.3 kmh 30.32 in1026.8 mb 0.00 in0.0 mm 0.00 in0.0 mm 0.00 in0.0 mm
10:15 AM 64.1°F17.8°C 32.3°F0.2°C 30% 2.3 mph NNW3.7 kmh NNW 4.7 mph7.6 kmh 30.32 in1026.8 mb 0.00 in0.0 mm 0.00 in0.0 mm 0.00 in0.0 mm
10:10 AM 63.8°F17.7°C 32.7°F0.4°C 31% 2.2 mph NNW3.5 kmh NNW 3.7 mph6.0 kmh 30.32 in1026.8 mb 0.00 in0.0 mm 0.00 in0.0 mm 0.00 in0.0 mm
10:05 AM 62.9°F17.2°C 32.9°F0.5°C 32% 2.8 mph NNW4.5 kmh NNW 5.8 mph9.3 kmh 30.32 in1026.8 mb 0.00 in0.0 mm 0.00 in0.0 mm 0.00 in0.0 mm
10:00 AM 62.2°F16.8°C 32.7°F0.4°C 33% 2.2 mph NNW3.5 kmh NNW 4.2 mph6.8 kmh 30.32 in1026.8 mb 0.00 in0.0 mm 0.00 in0.0 mm 0.00 in0.0 mm
09:55 AM 61.1°F16.2°C 31.7°F-0.2°C 33% 3.7 mph NNW6.0 kmh NNW 5.8 mph9.3 kmh 30.32 in1026.8 mb 0.00 in0.0 mm 0.00 in0.0 mm 0.00 in0.0 mm
09:50 AM 60.4°F15.8°C 31.2°F-0.4°C 33% 3.7 mph NNW6.0 kmh NNW 5.3 mph8.5 kmh 30.32 in1026.8 mb 0.00 in0.0 mm 0.00 in0.0 mm 0.00 in0.0 mm
09:45 AM 60.3°F15.7°C 31.1°F-0.5°C 33% 4.4 mph NNW7.1 kmh NNW 5.8 mph9.3 kmh 30.32 in1026.8 mb 0.00 in0.0 mm 0.00 in0.0 mm 0.00 in0.0 mm
09:40 AM 60.0°F15.6°C 31.2°F-0.4°C 34% 3.2 mph NNW5.1 kmh NNW 4.7 mph7.6 kmh 30.32 in1026.8 mb 0.00 in0.0 mm 0.00 in0.0 mm 0.00 in0.0 mm
09:35 AM 59.6°F15.3°C 30.4°F-0.9°C 33% 2.9 mph NNW4.7 kmh NNW 3.7 mph6.0 kmh 30.33 in1027.1 mb 0.00 in0.0 mm 0.00 in0.0 mm 0.00 in0.0 mm
09:30 AM 59.2°F15.1°C 30.1°F-1.1°C 33% 1.0 mph NNW1.6 kmh NNW 3.7 mph6.0 kmh 30.32 in1026.8 mb 0.00 in0.0 mm 0.00 in0.0 mm 0.00 in0.0 mm
09:25 AM 58.6°F14.8°C 29.8°F-1.2°C 33% 1.2 mph NNW1.9 kmh NNW 3.7 mph6.0 kmh 30.32 in1026.8 mb 0.00 in0.0 mm 0.00 in0.0 mm 0.00 in0.0 mm
09:20 AM 58.6°F14.8°C 30.3°F-0.9°C 34% 1.2 mph NNW1.9 kmh NNW 3.7 mph6.0 kmh 30.32 in1026.8 mb 0.00 in0.0 mm 0.00 in0.0 mm 0.00 in0.0 mm
09:15 AM 58.0°F14.4°C 31.2°F-0.4°C 36% 0.9 mph NNW1.4 kmh NNW 3.2 mph5.1 kmh 30.32 in1026.8 mb 0.00 in0.0 mm 0.00 in0.0 mm 0.00 in0.0 mm
09:10 AM 57.2°F14.0°C 30.8°F-0.7°C 36% 1.0 mph NNW1.6 kmh NNW 3.7 mph6.0 kmh 30.32 in1026.8 mb 0.00 in0.0 mm 0.00 in0.0 mm 0.00 in0.0 mm
09:05 AM 57.0°F13.9°C 30.9°F-0.6°C 37% 0.1 mph NNW0.2 kmh NNW 1.1 mph1.8 kmh 30.33 in1027.1 mb 0.00 in0.0 mm 0.00 in0.0 mm 0.00 in0.0 mm
09:00 AM 55.9°F13.3°C 30.8°F-0.7°C 38% Calm Calm -- 30.33 in1027.1 mb 0.00 in0.0 mm 0.00 in0.0 mm 0.00 in0.0 mm
08:55 AM 55.2°F12.9°C 29.8°F-1.2°C 38% Calm Calm -- 30.33 in1027.1 mb 0.00 in0.0 mm 0.00 in0.0 mm 0.00 in0.0 mm
08:50 AM 54.0°F12.2°C 29.1°F-1.6°C 38% Calm Calm -- 30.33 in1027.1 mb 0.00 in0.0 mm 0.00 in0.0 mm 0.00 in0.0 mm
08:45 AM 52.2°F11.2°C 28.2°F-2.1°C 39% Calm Calm -- 30.33 in1027.1 mb 0.00 in0.0 mm 0.00 in0.0 mm 0.00 in0.0 mm
08:40 AM 50.1°F10.1°C 28.0°F-2.2°C 42% 0.2 mph NNW0.3 kmh NNW 1.7 mph2.7 kmh 30.33 in1027.1 mb 0.00 in0.0 mm 0.00 in0.0 mm 0.00 in0.0 mm
08:35 AM 49.1°F9.5°C 30.1°F-1.1°C 48% Calm Calm -- 30.34 in1027.4 mb 0.00 in0.0 mm 0.00 in0.0 mm 0.00 in0.0 mm
08:30 AM 46.6°F8.1°C 32.9°F0.5°C 59% Calm Calm -- 30.34 in1027.4 mb 0.00 in0.0 mm 0.00 in0.0 mm 0.00 in0.0 mm
08:25 AM 45.5°F7.5°C 33.0°F0.6°C 62% Calm Calm -- 30.34 in1027.4 mb 0.00 in0.0 mm 0.00 in0.0 mm 0.00 in0.0 mm
08:20 AM 45.2°F7.3°C 33.0°F0.6°C 62% Calm Calm -- 30.34 in1027.4 mb 0.00 in0.0 mm 0.00 in0.0 mm 0.00 in0.0 mm
08:15 AM 44.5°F6.9°C 32.8°F0.4°C 63% Calm Calm -- 30.34 in1027.4 mb 0.00 in0.0 mm 0.00 in0.0 mm 0.00 in0.0 mm
08:10 AM 43.8°F6.6°C 32.5°F0.3°C 64% Calm Calm -- 30.34 in1027.4 mb 0.00 in0.0 mm 0.00 in0.0 mm 0.00 in0.0 mm
08:05 AM 43.0°F6.1°C 32.2°F0.1°C 66% Calm Calm -- 30.34 in1027.4 mb 0.00 in0.0 mm 0.00 in0.0 mm 0.00 in0.0 mm
07:55 AM 41.5°F5.3°C 31.6°F-0.2°C 68% Calm Calm -- 30.34 in1027.4 mb 0.00 in0.0 mm 0.00 in0.0 mm 0.00 in0.0 mm
07:50 AM 41.4°F5.2°C 31.2°F-0.4°C 67% Calm Calm -- 30.34 in1027.4 mb 0.00 in0.0 mm 0.00 in0.0 mm 0.00 in0.0 mm